createdAt,value
2022-11-08T00:00:02.568Z,45.78
2022-11-08T00:02:34.705Z,42.80
2022-11-08T00:05:20.344Z,45.55
2022-11-08T00:08:06.108Z,48.45
2022-11-08T00:10:54.278Z,44.35
2022-11-08T00:13:40.104Z,46.35
2022-11-08T00:16:07.359Z,50.15
2022-11-08T00:18:34.406Z,44.63
2022-11-08T00:21:03.296Z,47.13
2022-11-08T00:23:30.600Z,46.17
2022-11-08T00:25:57.902Z,38.65
2022-11-08T00:28:24.945Z,41.83
2022-11-08T00:30:51.924Z,45.95
2022-11-08T00:33:18.956Z,43.67
2022-11-08T00:35:45.986Z,40.92
2022-11-08T00:38:12.967Z,45.25
2022-11-08T00:40:39.961Z,44.28
2022-11-08T00:43:06.991Z,37.88
2022-11-08T00:45:34.049Z,47.65
2022-11-08T00:48:01.096Z,44.38
2022-11-08T00:50:28.132Z,47.42
2022-11-08T00:52:55.256Z,46.08
2022-11-08T00:55:22.265Z,45.50
2022-11-08T00:58:04.162Z,40.15
2022-11-08T01:00:31.278Z,45.67
2022-11-08T01:03:17.198Z,47.20
2022-11-08T01:05:44.863Z,45.42
2022-11-08T01:08:13.063Z,42.70
2022-11-08T01:10:44.893Z,50.30
2022-11-08T01:13:12.679Z,42.92
2022-11-08T01:15:43.141Z,43.25
2022-11-08T01:18:12.348Z,48.10
2022-11-08T01:20:40.373Z,47.08
2022-11-08T01:23:10.952Z,47.13
2022-11-08T01:25:46.815Z,46.35
2022-11-08T01:28:13.945Z,46.70
2022-11-08T01:30:43.510Z,48.60
2022-11-08T01:33:11.586Z,45.65
2022-11-08T01:35:39.230Z,51.75
2022-11-08T01:38:06.660Z,49.22
2022-11-08T01:40:35.331Z,49.28
2022-11-08T01:43:25.415Z,47.85
2022-11-08T01:46:16.002Z,49.80
2022-11-08T01:48:50.000Z,48.95
2022-11-08T01:51:21.128Z,43.70
2022-11-08T01:53:48.849Z,48.90
2022-11-08T01:56:16.667Z,43.00
2022-11-08T01:58:47.275Z,48.90
2022-11-08T02:01:14.471Z,40.13
2022-11-08T02:03:42.144Z,41.10
2022-11-08T02:06:10.153Z,49.80
2022-11-08T02:08:41.077Z,45.15
2022-11-08T02:11:11.586Z,44.65
2022-11-08T02:13:39.444Z,45.50
2022-11-08T02:16:11.572Z,42.22
2022-11-08T02:18:39.515Z,47.22
2022-11-08T02:21:17.688Z,47.60
2022-11-08T02:23:47.646Z,45.17
2022-11-08T02:26:16.429Z,43.25
2022-11-08T02:28:45.362Z,44.28
2022-11-08T02:31:14.056Z,42.88
2022-11-08T02:33:41.701Z,41.67
2022-11-08T02:36:12.118Z,39.75
2022-11-08T02:38:46.987Z,35.75
2022-11-08T02:41:13.994Z,40.35
2022-11-08T02:43:41.009Z,36.05
2022-11-08T02:46:08.099Z,37.17
2022-11-08T02:48:35.159Z,37.97
2022-11-08T02:51:02.241Z,41.47
2022-11-08T02:53:29.375Z,35.78
2022-11-08T02:55:56.501Z,41.45
2022-11-08T02:58:23.764Z,42.92
2022-11-08T03:00:50.843Z,37.78
2022-11-08T03:03:17.858Z,45.92
2022-11-08T03:05:47.633Z,38.88
2022-11-08T03:08:18.298Z,43.53
2022-11-08T03:10:45.460Z,41.63
2022-11-08T03:13:12.471Z,43.08
2022-11-08T03:15:39.548Z,35.10
2022-11-08T03:18:06.905Z,36.92
2022-11-08T03:20:34.098Z,38.97
2022-11-08T03:23:03.388Z,40.40
2022-11-08T03:25:30.968Z,36.78
2022-11-08T03:28:09.284Z,41.00
2022-11-08T03:30:37.269Z,34.78
2022-11-08T03:33:04.971Z,42.13
2022-11-08T03:35:32.489Z,41.15
2022-11-08T03:38:00.624Z,44.70
2022-11-08T03:40:28.130Z,45.40
2022-11-08T03:42:58.442Z,37.42
2022-11-08T03:45:26.454Z,36.50
2022-11-08T03:47:53.724Z,41.92
2022-11-08T03:50:23.252Z,39.63
2022-11-08T03:52:52.600Z,42.63
2022-11-08T03:55:21.915Z,39.33
2022-11-08T03:57:49.993Z,46.88
2022-11-08T04:00:25.978Z,42.97
2022-11-08T04:02:58.116Z,41.20
2022-11-08T04:05:27.706Z,39.45
2022-11-08T04:07:57.688Z,45.17
2022-11-08T04:10:27.035Z,43.53
2022-11-08T04:13:12.454Z,35.22
2022-11-08T04:15:39.856Z,42.75
2022-11-08T04:18:26.976Z,36.10
2022-11-08T04:21:21.651Z,32.83
2022-11-08T04:23:52.733Z,38.88
2022-11-08T04:26:21.837Z,40.47
2022-11-08T04:28:48.997Z,35.67
2022-11-08T04:31:18.877Z,35.90
2022-11-08T04:33:47.031Z,34.50
2022-11-08T04:36:16.429Z,34.97
2022-11-08T04:38:43.898Z,33.25
2022-11-08T04:41:14.226Z,29.88
2022-11-08T04:43:42.216Z,33.08
2022-11-08T04:46:12.407Z,34.05
2022-11-08T04:48:40.267Z,29.90
2022-11-08T04:51:28.702Z,31.25
2022-11-08T04:53:57.665Z,27.95
2022-11-08T04:56:25.395Z,30.40
2022-11-08T04:58:58.002Z,30.75
2022-11-08T05:01:30.665Z,29.05
2022-11-08T05:03:58.576Z,28.75
2022-11-08T05:06:28.456Z,36.53
2022-11-08T05:08:56.669Z,33.63
2022-11-08T05:11:25.509Z,33.35
2022-11-08T05:13:53.015Z,32.72
2022-11-08T05:16:22.715Z,38.85
2022-11-08T05:18:50.478Z,33.20
2022-11-08T05:21:38.416Z,28.40
2022-11-08T05:24:07.541Z,27.50
2022-11-08T05:26:36.894Z,33.47
2022-11-08T05:29:05.064Z,30.00
2022-11-08T05:31:32.255Z,30.40
2022-11-08T05:34:00.924Z,31.65
2022-11-08T05:36:28.789Z,25.75
2022-11-08T05:38:56.427Z,27.92
2022-11-08T05:41:25.117Z,27.77
2022-11-08T05:43:54.858Z,31.23
2022-11-08T05:46:23.287Z,29.15
2022-11-08T05:48:51.100Z,28.58
2022-11-08T05:51:21.497Z,31.95
2022-11-08T05:53:49.070Z,26.00
2022-11-08T05:56:17.025Z,32.10
2022-11-08T05:58:44.261Z,30.45
2022-11-08T06:01:13.939Z,29.52
2022-11-08T06:03:41.607Z,29.75
2022-11-08T06:06:17.905Z,34.05
2022-11-08T06:08:49.892Z,32.00
2022-11-08T06:11:21.769Z,35.22
2022-11-08T06:13:49.118Z,32.63
2022-11-08T06:16:18.017Z,28.85
2022-11-08T06:18:45.332Z,30.42
2022-11-08T06:21:14.821Z,28.92
2022-11-08T06:23:42.547Z,29.92
2022-11-08T06:26:10.251Z,29.50
2022-11-08T06:28:37.599Z,33.30
2022-11-08T06:31:05.678Z,28.63
2022-11-08T06:33:33.274Z,28.90
2022-11-08T06:36:00.371Z,30.50
2022-11-08T06:38:27.624Z,31.50
2022-11-08T06:40:54.611Z,36.90
2022-11-08T06:43:21.939Z,33.80
2022-11-08T06:45:49.238Z,30.45
2022-11-08T06:48:16.269Z,34.78
2022-11-08T06:50:43.692Z,34.53
2022-11-08T06:53:14.509Z,27.60
2022-11-08T06:55:41.686Z,33.80
2022-11-08T06:58:10.891Z,33.40
2022-11-08T07:00:38.286Z,35.08
2022-11-08T07:03:09.983Z,26.40
2022-11-08T07:05:37.340Z,33.80
2022-11-08T07:08:06.905Z,35.00
2022-11-08T07:10:34.247Z,34.65
2022-11-08T07:13:04.594Z,39.92
2022-11-08T07:15:33.742Z,32.72
2022-11-08T07:18:09.482Z,39.17
2022-11-08T07:20:38.247Z,38.42
2022-11-08T07:23:09.170Z,33.05
2022-11-08T07:25:39.171Z,40.38
2022-11-08T07:28:08.272Z,35.40
2022-11-08T07:30:36.077Z,31.65
2022-11-08T07:33:03.948Z,31.40
2022-11-08T07:35:31.314Z,35.38
2022-11-08T07:37:58.564Z,28.92
2022-11-08T07:40:25.814Z,35.45
2022-11-08T07:45:41.761Z,30.08
2022-11-08T07:48:12.590Z,31.75
2022-11-08T07:50:41.906Z,26.60
2022-11-08T07:53:09.827Z,33.15
2022-11-08T07:55:37.909Z,27.42
2022-11-08T07:58:05.441Z,30.95
2022-11-08T08:00:36.479Z,28.80
2022-11-08T08:03:05.866Z,24.08
2022-11-08T08:05:36.247Z,31.25
2022-11-08T08:08:04.061Z,31.55
2022-11-08T08:10:32.234Z,34.97
2022-11-08T08:12:59.387Z,28.63
2022-11-08T08:15:26.876Z,27.55
2022-11-08T08:17:54.152Z,29.25
2022-11-08T08:20:21.159Z,32.33
2022-11-08T08:22:50.274Z,28.88
2022-11-08T08:25:18.539Z,26.88
2022-11-08T08:27:56.265Z,26.05
2022-11-08T08:30:24.895Z,26.15
2022-11-08T08:33:08.335Z,24.90
2022-11-08T08:35:39.923Z,25.40
2022-11-08T08:38:07.477Z,25.17
2022-11-08T08:40:35.027Z,24.67
2022-11-08T08:43:03.600Z,23.50
2022-11-08T08:45:31.852Z,27.63
2022-11-08T08:47:59.555Z,23.58
2022-11-08T08:50:28.749Z,23.42
2022-11-08T08:53:04.708Z,21.42
2022-11-08T08:55:35.377Z,23.30
2022-11-08T08:58:03.746Z,21.38
2022-11-08T09:03:18.086Z,25.05
2022-11-08T09:05:46.997Z,23.00
2022-11-08T09:08:17.095Z,22.85
2022-11-08T09:10:44.389Z,23.20
2022-11-08T09:13:11.615Z,23.00
2022-11-08T09:15:39.574Z,24.05
2022-11-08T09:18:07.017Z,22.10
2022-11-08T09:20:34.323Z,21.48
2022-11-08T09:23:03.112Z,23.90
2022-11-08T09:25:30.445Z,22.42
2022-11-08T09:27:57.777Z,27.05
2022-11-08T09:30:26.482Z,24.35
2022-11-08T09:33:00.889Z,19.95
2022-11-08T09:35:29.316Z,20.40
2022-11-08T09:37:57.333Z,19.77
2022-11-08T09:40:31.757Z,21.38
2022-11-08T09:43:24.935Z,19.95
2022-11-08T09:45:53.866Z,22.42
2022-11-08T09:48:28.704Z,24.75
2022-11-08T09:50:59.577Z,23.27
2022-11-08T09:53:40.830Z,24.48
2022-11-08T09:56:19.496Z,25.60
2022-11-08T09:58:50.965Z,23.27
2022-11-08T10:01:19.548Z,27.48
2022-11-08T10:03:55.562Z,21.08
2022-11-08T10:06:30.221Z,24.33
2022-11-08T10:09:35.709Z,22.65
2022-11-08T10:12:05.663Z,24.75
2022-11-08T10:14:46.770Z,25.33
2022-11-08T10:17:54.370Z,30.00
2022-11-08T10:20:43.044Z,24.42
2022-11-08T10:23:37.788Z,27.15
2022-11-08T10:26:31.084Z,21.27
2022-11-08T10:29:06.893Z,21.27
2022-11-08T10:31:36.443Z,21.77
2022-11-08T10:34:12.973Z,15.07
2022-11-08T10:36:47.816Z,19.65
2022-11-08T10:39:23.793Z,16.63
2022-11-08T10:42:23.329Z,18.50
2022-11-08T10:44:50.365Z,20.55
2022-11-08T10:47:28.574Z,15.48
2022-11-08T10:50:00.960Z,17.52
2022-11-08T10:52:45.552Z,17.73
2022-11-08T10:55:31.080Z,17.80
2022-11-08T10:57:58.193Z,18.35
2022-11-08T11:00:31.524Z,20.55
2022-11-08T11:03:10.780Z,18.38
2022-11-08T11:05:42.385Z,14.65
2022-11-08T11:08:09.787Z,14.40
2022-11-08T11:10:48.621Z,14.88
2022-11-08T11:13:15.613Z,18.10
2022-11-08T11:15:51.270Z,18.27
2022-11-08T11:18:49.560Z,15.55
2022-11-08T11:21:22.481Z,11.48
2022-11-08T11:23:55.237Z,16.02
2022-11-08T11:26:31.216Z,13.35
2022-11-08T11:29:04.613Z,10.50
2022-11-08T11:31:37.711Z,13.70
2022-11-08T11:36:53.631Z,14.23
2022-11-08T11:39:33.245Z,9.20
2022-11-08T11:42:30.999Z,15.70
2022-11-08T11:45:17.984Z,13.27
2022-11-08T11:47:49.352Z,16.40
2022-11-08T11:50:36.105Z,12.32
2022-11-08T11:53:12.960Z,14.13
2022-11-08T11:55:52.112Z,12.52
2022-11-08T11:58:31.068Z,12.88
2022-11-08T12:01:38.949Z,12.60
2022-11-08T12:04:33.742Z,13.93
2022-11-08T12:07:05.519Z,14.18
2022-11-08T12:09:58.803Z,13.30
2022-11-08T12:13:00.645Z,14.13
2022-11-08T12:15:46.309Z,12.95
2022-11-08T12:18:58.225Z,12.18
2022-11-08T12:21:28.274Z,12.50
2022-11-08T12:24:23.190Z,14.13
2022-11-08T12:27:28.083Z,8.70
2022-11-08T12:30:14.918Z,8.77
2022-11-08T12:32:41.873Z,9.73
2022-11-08T12:35:11.879Z,11.23
2022-11-08T12:37:41.919Z,9.52
2022-11-08T12:40:44.290Z,11.63
2022-11-08T12:43:32.165Z,12.65
2022-11-08T12:46:13.138Z,11.32
2022-11-08T12:49:03.287Z,8.07
2022-11-08T12:51:50.129Z,9.80
2022-11-08T12:54:27.031Z,8.25
2022-11-08T12:56:58.146Z,7.50
2022-11-08T12:59:43.042Z,7.70
2022-11-08T13:02:20.160Z,8.38
2022-11-08T13:04:56.255Z,8.38
2022-11-08T13:07:31.389Z,9.82
2022-11-08T13:10:05.424Z,10.15
2022-11-08T13:12:41.853Z,7.20
2022-11-08T13:15:18.979Z,8.90
2022-11-08T13:18:07.896Z,6.97
2022-11-08T13:21:21.718Z,6.07
2022-11-08T13:23:48.810Z,8.00
2022-11-08T13:26:24.398Z,8.60
2022-11-08T13:28:52.915Z,6.50
2022-11-08T13:31:27.661Z,12.38
2022-11-08T13:34:09.800Z,7.82
2022-11-08T13:36:42.963Z,12.95
2022-11-08T13:39:28.217Z,6.53
2022-11-08T13:42:25.718Z,6.30
2022-11-08T13:44:55.046Z,8.68
2022-11-08T13:47:34.324Z,9.63
2022-11-08T13:50:29.627Z,9.70
2022-11-08T13:53:20.106Z,8.38
2022-11-08T13:56:06.805Z,11.23
2022-11-08T13:58:39.907Z,5.38
2022-11-08T14:04:03.120Z,5.93
2022-11-08T14:06:40.898Z,6.65
2022-11-08T14:09:20.644Z,7.70
2022-11-08T14:12:46.186Z,6.03
2022-11-08T14:15:15.842Z,6.40
2022-11-08T14:17:49.780Z,6.28
2022-11-08T14:20:58.501Z,6.32
2022-11-08T14:26:28.214Z,8.23
2022-11-08T14:29:00.121Z,4.50
2022-11-08T14:31:34.575Z,7.57
2022-11-08T14:34:02.425Z,6.03
2022-11-08T14:36:31.949Z,6.07
2022-11-08T14:39:12.010Z,5.43
2022-11-08T14:41:39.599Z,7.00
2022-11-08T14:44:14.515Z,3.45
2022-11-08T14:46:41.918Z,7.35
2022-11-08T14:49:33.197Z,4.72
2022-11-08T14:52:17.577Z,6.22
2022-11-08T14:54:48.449Z,5.63
2022-11-08T14:57:40.330Z,5.28
2022-11-08T15:00:15.433Z,4.72
2022-11-08T15:03:24.651Z,5.18
2022-11-08T15:06:14.455Z,5.78
2022-11-08T15:08:58.276Z,7.43
2022-11-08T15:12:00.325Z,5.35
2022-11-08T15:14:44.013Z,5.70
2022-11-08T15:22:28.220Z,7.47
2022-11-08T15:25:01.922Z,6.28
2022-11-08T15:28:00.692Z,7.05
2022-11-08T15:32:02.135Z,6.32
2022-11-08T15:34:50.736Z,6.60
2022-11-08T15:37:45.900Z,7.18
2022-11-08T15:40:21.624Z,8.07
2022-11-08T15:42:54.440Z,7.10
2022-11-08T15:45:35.843Z,8.38
2022-11-08T15:48:20.263Z,7.13
2022-11-08T15:50:48.016Z,9.00
2022-11-08T15:53:20.593Z,7.15
2022-11-08T15:56:11.670Z,8.90
2022-11-08T15:58:46.633Z,8.50
2022-11-08T16:01:23.447Z,8.00
2022-11-08T16:03:57.463Z,10.73
2022-11-08T16:06:27.188Z,9.25
2022-11-08T16:08:59.277Z,11.40
2022-11-08T16:11:26.353Z,9.30
2022-11-08T16:13:57.231Z,10.32
2022-11-08T16:16:24.357Z,11.25
2022-11-08T16:18:51.384Z,12.68
2022-11-08T16:21:21.371Z,13.23
2022-11-08T16:23:48.572Z,12.07
2022-11-08T16:26:29.071Z,9.60
2022-11-08T16:28:58.671Z,9.65
2022-11-08T16:31:30.960Z,9.20
2022-11-08T16:34:01.348Z,11.40
2022-11-08T16:36:32.930Z,9.88
2022-11-08T16:39:08.265Z,9.32
2022-11-08T16:41:42.471Z,10.98
2022-11-08T16:44:15.078Z,10.60
2022-11-08T16:46:46.656Z,12.43
2022-11-08T16:49:27.171Z,11.20
2022-11-08T16:52:00.189Z,10.65
2022-11-08T16:54:28.674Z,11.50
2022-11-08T16:57:20.540Z,14.82
2022-11-08T16:59:44.168Z,20.05
2022-11-08T17:02:21.790Z,15.55
2022-11-08T17:04:50.297Z,18.38
2022-11-08T17:07:22.828Z,16.30
2022-11-08T17:10:10.862Z,34.33
2022-11-08T17:12:38.102Z,17.02
2022-11-08T17:15:27.816Z,18.20
2022-11-08T17:18:58.439Z,23.48
2022-11-08T17:22:16.886Z,18.05
2022-11-08T17:24:47.143Z,13.00
2022-11-08T17:27:20.848Z,13.45
2022-11-08T17:29:47.961Z,15.18
2022-11-08T17:32:24.116Z,15.60
2022-11-08T17:34:51.986Z,16.73
2022-11-08T17:37:19.492Z,16.48
2022-11-08T17:39:46.849Z,19.10
2022-11-08T17:47:54.028Z,18.70
2022-11-08T17:50:48.163Z,16.90
2022-11-08T17:53:34.950Z,16.20
2022-11-08T17:56:04.704Z,17.98
2022-11-08T17:58:36.741Z,14.68
2022-11-08T18:01:08.257Z,15.57
2022-11-08T18:03:35.494Z,18.85
2022-11-08T18:06:09.590Z,16.52
2022-11-08T18:08:36.974Z,16.30
2022-11-08T18:11:07.040Z,18.83
2022-11-08T18:13:35.322Z,20.58
2022-11-08T18:16:23.635Z,18.38
2022-11-08T18:18:51.279Z,17.38
2022-11-08T18:21:19.830Z,16.30
2022-11-08T18:23:48.132Z,18.65
2022-11-08T18:26:16.462Z,17.80
2022-11-08T18:28:44.459Z,20.45
2022-11-08T18:31:14.916Z,19.23
2022-11-08T18:33:42.913Z,20.15
2022-11-08T18:36:13.291Z,20.70
2022-11-08T18:38:42.152Z,18.90
2022-11-08T18:41:10.367Z,21.65
2022-11-08T18:43:38.492Z,21.10
2022-11-08T18:46:08.156Z,19.90
2022-11-08T18:48:38.694Z,19.65
2022-11-08T18:51:08.068Z,20.77
2022-11-08T18:53:35.290Z,18.15
2022-11-08T18:56:06.738Z,19.67
2022-11-08T18:58:34.233Z,19.10
2022-11-08T19:01:04.331Z,18.83
2022-11-08T19:03:33.427Z,18.52
2022-11-08T19:06:04.045Z,19.15
2022-11-08T19:08:32.662Z,20.55
2022-11-08T19:11:06.628Z,24.33
2022-11-08T19:13:35.588Z,21.77
2022-11-08T19:16:13.351Z,21.52
2022-11-08T19:18:41.390Z,22.55
2022-11-08T19:21:14.423Z,19.02
2022-11-08T19:26:17.296Z,22.20
2022-11-08T19:28:45.739Z,18.77
2022-11-08T19:31:15.508Z,21.77
2022-11-08T19:33:42.730Z,25.65
2022-11-08T19:36:14.147Z,21.98
2022-11-08T19:38:41.354Z,20.40
2022-11-08T19:41:12.649Z,24.27
2022-11-08T19:43:41.563Z,25.70
2022-11-08T19:46:15.971Z,26.23
2022-11-08T19:48:45.267Z,26.83
2022-11-08T19:51:18.403Z,23.77
2022-11-08T19:56:17.174Z,25.00
2022-11-08T19:58:45.206Z,28.40
2022-11-08T20:01:21.447Z,23.33
2022-11-08T20:03:49.113Z,24.60
2022-11-08T20:06:18.760Z,19.33
2022-11-08T20:08:53.901Z,28.25
2022-11-08T20:11:24.312Z,26.20
2022-11-08T20:13:51.713Z,23.13
2022-11-08T20:16:26.481Z,27.33
2022-11-08T20:18:54.906Z,28.00
2022-11-08T20:21:22.121Z,23.90
2022-11-08T20:23:49.568Z,25.25
2022-11-08T20:26:22.529Z,25.65
2022-11-08T20:33:53.123Z,23.58
2022-11-08T20:36:23.025Z,24.70
2022-11-08T20:38:54.073Z,24.42
2022-11-08T20:41:21.244Z,25.83
2022-11-08T20:43:48.389Z,23.40
2022-11-08T20:46:19.434Z,24.40
2022-11-08T20:48:51.618Z,22.63
2022-11-08T20:51:21.024Z,21.27
2022-11-08T20:53:48.781Z,26.17
2022-11-08T20:56:18.790Z,27.38
2022-11-08T20:58:47.142Z,24.92
2022-11-08T21:01:18.474Z,26.85
2022-11-08T21:03:52.274Z,25.95
2022-11-08T21:06:27.636Z,23.88
2022-11-08T21:09:00.978Z,26.83
2022-11-08T21:11:30.961Z,34.88
2022-11-08T21:13:58.374Z,27.25
2022-11-08T21:16:30.877Z,26.67
2022-11-08T21:18:59.574Z,27.65
2022-11-08T21:21:27.621Z,29.23
2022-11-08T21:23:55.096Z,24.65
2022-11-08T21:26:23.211Z,25.40
2022-11-08T21:28:50.466Z,30.10
2022-11-08T21:31:18.029Z,29.05
2022-11-08T21:33:45.371Z,27.23
2022-11-08T21:36:13.619Z,29.25
2022-11-08T21:38:41.083Z,30.08
2022-11-08T21:41:10.290Z,28.45
2022-11-08T21:43:43.147Z,27.92
2022-11-08T21:46:25.830Z,30.40
2022-11-08T21:48:55.622Z,31.90
2022-11-08T21:51:24.586Z,31.05
2022-11-08T21:53:55.478Z,25.52
2022-11-08T21:56:25.035Z,25.25
2022-11-08T21:58:52.756Z,30.58
2022-11-08T22:01:24.160Z,30.67
2022-11-08T22:03:54.610Z,31.90
2022-11-08T22:06:22.841Z,28.50
2022-11-08T22:08:50.162Z,26.98
2022-11-08T22:11:17.540Z,29.90
2022-11-08T22:13:44.671Z,29.05
2022-11-08T22:16:11.761Z,32.30
2022-11-08T22:21:43.248Z,31.77
2022-11-08T22:24:20.599Z,32.08
2022-11-08T22:26:48.971Z,32.70
2022-11-08T22:29:16.942Z,32.67
2022-11-08T22:31:44.629Z,29.27
2022-11-08T22:34:12.143Z,35.13
2022-11-08T22:36:44.875Z,29.45
2022-11-08T22:39:18.613Z,32.90
2022-11-08T22:41:47.478Z,30.90
2022-11-08T22:44:15.548Z,31.15
2022-11-08T22:46:44.711Z,31.17
2022-11-08T22:49:13.085Z,33.60
2022-11-08T22:51:44.368Z,37.03
2022-11-08T22:54:34.947Z,30.70
2022-11-08T22:57:04.288Z,28.90
2022-11-08T22:59:31.697Z,33.00
2022-11-08T23:01:59.085Z,30.05
2022-11-08T23:04:26.253Z,30.08
2022-11-08T23:06:53.344Z,31.77
2022-11-08T23:09:20.425Z,27.13
2022-11-08T23:12:06.008Z,29.92
2022-11-08T23:14:51.502Z,30.27
2022-11-08T23:17:18.635Z,31.35
2022-11-08T23:20:04.024Z,31.27
2022-11-08T23:22:49.959Z,26.60
2022-11-08T23:25:17.166Z,37.95
2022-11-08T23:28:02.996Z,33.30
2022-11-08T23:30:48.700Z,28.85
2022-11-08T23:33:15.696Z,31.35
2022-11-08T23:36:02.606Z,29.23
2022-11-08T23:38:30.093Z,32.55
2022-11-08T23:41:17.782Z,31.90
2022-11-08T23:44:03.399Z,33.00
2022-11-08T23:46:30.509Z,29.58
2022-11-08T23:48:57.653Z,33.63
2022-11-08T23:51:24.835Z,25.25
2022-11-08T23:53:51.902Z,26.65
2022-11-08T23:56:23.665Z,32.20
2022-11-08T23:58:54.756Z,29.45
